Cut Bank Municipal Airport
KCTB : now visible

Airfield :











YOU CAN JOIN US ON...

 
LOGIN :

Register | Disclaimer

   EN    FR    IT 

 









Legend :    VFR   Marginal VFR   IFR   Intensive IFR   Very Intensive IFR
Visi :
Ceiling :
>= 8 km
>= 3000ft
5 to 8 km
1000 to 3000 ft
1500m to 5 km
500 to 1000 ft
800 to 1500m
200 to 500 ft
< 800m
< 200 ft
Symbols :   Thunderstorms  Fog  Heavy snow  Heavy precipitations  Wind > 20 kt






- Airport Elevation : 3854 ft


KCTB - Cut Bank Municipal

CURRENT METAR :
  • 120156Z AUTO 27011KT 10SM CLR 00/M06 A2984 RMK AO2 SLP130 T00001056

EXPIRED METARs :
  • 120056Z AUTO 25014KT 10SM CLR M01/M06 A2986 RMK AO2 SLP138 T10061056
  • 112356Z AUTO 28016KT 10SM CLR 00/M06 A2985 RMK AO2 PK WND 27028/2301 SLP134 T00001056 10044 20000 51009

TAF KCTB
Valid from the 12 at 00:00 until the 13 at 00:00 UTC


112324Z 1200/1224 26015KT P6SM FEW060 SCT200
FM121500 23018G26KT P6SM FEW060 BKN120
FM121900 24024G32KT P6SM FEW050 BKN100



MET'MAP, your aeronautical weather chart ! - Copyright ORBIFLY December 2007 - Disclaimer

ORBIFLY MET'MAP TEAM :

Programming & Development : Alexandra Zaïnal
Concept & original design : Baudouin d'Aumeries
Assistance for programming : Marc-Olivier Méhu
Technical & hardware support : Manuel Goepfert

Contact : metmap@orbifly.com




SOURCES & CREDITS :

   NOAA       Earth
Advisory